Time;durP1;ratioP1;P1;durP2;ratioP2;P2;SDS_P1;SDS_P2;PMS_P1;PMS_P2;Temp;Humidity;BMP_temperature;BMP_pressure;BME280_temperature;BME280_humidity;BME280_pressure;Samples;Min_cycle;Max_cycle;Signal;HPM_P1;HPM_P2
2023/05/30 00:01:06;;;;;;;3.92;2.15;;;19.50;55.10;;;;;;5015224;28;20491;-32
2023/05/30 00:03:35;;;;;;;4.30;2.63;;;;;;;;;;5015015;28;20056;-31
2023/05/30 00:06:01;;;;;;;4.55;2.20;;;19.40;57.70;;;;;;5015132;28;20061;-32
2023/05/30 00:08:28;;;;;;;4.80;2.25;;;19.10;72.90;;;;;;5015161;28;20037;-33
2023/05/30 00:10:55;;;;;;;5.40;2.28;;;18.40;72.20;;;;;;5015551;28;20074;-32
2023/05/30 00:13:22;;;;;;;5.18;2.72;;;20.40;73.60;;;;;;5014764;28;20050;-32
2023/05/30 00:15:51;;;;;;;5.07;2.50;;;19.60;72.90;;;;;;5014970;28;20151;-32
2023/05/30 00:18:22;;;;;;;6.47;2.40;;;18.90;55.00;;;;;;5014941;28;20050;-33
2023/05/30 00:20:49;;;;;;;5.35;2.70;;;19.50;72.70;;;;;;5014701;28;20072;-32
2023/05/30 00:23:15;;;;;;;4.57;2.30;;;19.70;72.90;;;;;;5014749;28;20468;-32
2023/05/30 00:25:44;;;;;;;4.32;2.13;;;18.40;60.80;;;;;;5015044;28;20054;-32
2023/05/30 00:28:10;;;;;;;4.95;2.70;;;19.60;70.50;;;;;;5014721;28;20168;-32
2023/05/30 00:30:37;;;;;;;5.25;2.30;;;19.60;72.90;;;;;;5014636;28;20045;-32
2023/05/30 00:33:04;;;;;;;3.72;2.20;;;;;;;;;;5014679;28;20137;-31
2023/05/30 00:35:33;;;;;;;4.35;2.30;;;19.10;73.00;;;;;;5014491;28;20447;-32
2023/05/30 00:37:59;;;;;;;5.05;2.20;;;18.60;72.40;;;;;;5013438;28;20145;-32
2023/05/30 00:40:26;;;;;;;4.60;2.33;;;18.80;72.40;;;;;;5015024;28;20128;-32
2023/05/30 00:42:53;;;;;;;4.47;2.22;;;18.90;73.10;;;;;;5013630;28;20551;-33
2023/05/30 00:45:20;;;;;;;4.78;2.40;;;18.60;64.70;;;;;;5014466;28;20058;-32
2023/05/30 00:47:47;;;;;;;4.40;2.42;;;19.70;72.90;;;;;;5014543;28;20132;-32
2023/05/30 00:50:16;;;;;;;4.05;2.00;;;;;;;;;;5014606;28;20046;-32
2023/05/30 00:52:44;;;;;;;3.78;2.08;;;19.40;55.00;;;;;;5014352;28;20075;-31
2023/05/30 00:55:12;;;;;;;4.78;2.17;;;;;;;;;;5014465;28;20049;-32
2023/05/30 00:57:39;;;;;;;5.82;2.40;;;19.70;73.80;;;;;;5014254;28;20054;-32
2023/05/30 01:00:07;;;;;;;3.72;2.08;;;19.10;73.10;;;;;;5014046;28;20050;-33
2023/05/30 01:02:34;;;;;;;3.42;2.05;;;19.30;73.20;;;;;;5014272;28;20058;-32
2023/05/30 01:05:00;;;;;;;4.18;2.20;;;18.80;73.40;;;;;;5014113;28;20506;-32
2023/05/30 01:07:27;;;;;;;5.30;2.38;;;19.40;55.10;;;;;;5014292;28;20459;-32
2023/05/30 01:09:55;;;;;;;4.05;2.20;;;19.40;72.80;;;;;;5014156;28;20050;-32
2023/05/30 01:12:25;;;;;;;2.83;1.90;;;19.40;73.70;;;;;;5013754;28;20148;-32
2023/05/30 01:14:56;;;;;;;5.82;2.42;;;19.30;56.50;;;;;;5013917;28;20057;-32
2023/05/30 01:17:25;;;;;;;5.50;2.50;;;19.90;62.20;;;;;;5014226;28;20133;-32
2023/05/30 01:20:04;;;;;;;6.15;2.30;;;19.70;73.00;;;;;;5014080;28;20053;-32
2023/05/30 01:22:36;;;;;;;4.40;2.20;;;19.90;74.00;;;;;;5013694;28;20112;-32
2023/05/30 01:25:16;;;;;;;2.90;1.95;;;19.20;73.70;;;;;;4994125;28;20054;-32
2023/05/30 01:27:54;;;;;;;4.18;2.20;;;19.60;73.00;;;;;;5004009;28;20088;-32
2023/05/30 01:30:21;;;;;;;4.78;2.17;;;20.20;73.30;;;;;;5014077;28;20121;-32
2023/05/30 01:32:48;;;;;;;3.33;2.17;;;;;;;;;;5013507;28;20054;-31
2023/05/30 01:35:22;;;;;;;3.55;2.20;;;19.60;60.50;;;;;;5013697;28;20052;-32
2023/05/30 01:37:49;;;;;;;3.53;2.03;;;19.30;73.70;;;;;;5012973;28;20046;-32
2023/05/30 01:40:16;;;;;;;3.85;2.20;;;19.30;55.10;;;;;;5013862;28;20045;-32
2023/05/30 01:42:43;;;;;;;3.22;2.08;;;18.90;73.50;;;;;;5013047;28;20145;-32
2023/05/30 01:45:14;;;;;;;3.33;2.10;;;18.60;72.80;;;;;;5013282;28;20046;-32
2023/05/30 01:47:44;;;;;;;6.53;2.53;;;19.70;69.10;;;;;;5013184;28;20433;-33
2023/05/30 01:50:14;;;;;;;3.67;2.15;;;20.10;55.50;;;;;;5013069;28;20052;-32
2023/05/30 01:52:41;;;;;;;5.18;2.00;;;18.10;65.50;;;;;;5013497;28;20058;-32
2023/05/30 01:55:09;;;;;;;5.03;2.83;;;19.30;73.70;;;;;;5013124;28;20132;-32
2023/05/30 01:57:36;;;;;;;2.80;2.05;;;19.20;55.00;;;;;;5013225;28;20046;-30
2023/05/30 02:00:04;;;;;;;4.45;2.30;;;19.90;58.90;;;;;;5012970;28;20061;-32
2023/05/30 02:02:32;;;;;;;4.10;2.10;;;19.20;55.00;;;;;;5012930;28;20050;-30
2023/05/30 02:04:59;;;;;;;4.03;2.20;;;;;;;;;;5012958;28;20132;-31
2023/05/30 02:07:27;;;;;;;4.13;2.20;;;19.00;73.10;;;;;;5013391;28;20434;-33
2023/05/30 02:09:54;;;;;;;3.47;2.05;;;19.20;73.20;;;;;;5012786;28;20042;-32
2023/05/30 02:12:20;;;;;;;3.53;2.20;;;19.30;72.90;;;;;;5012662;28;20136;-33
2023/05/30 02:14:47;;;;;;;3.42;2.10;;;19.30;73.30;;;;;;5013063;28;20056;-32
2023/05/30 02:17:15;;;;;;;4.15;2.22;;;19.10;68.80;;;;;;5012772;28;20518;-32
2023/05/30 02:19:43;;;;;;;4.45;2.30;;;19.20;55.00;;;;;;5012880;28;20414;-32
2023/05/30 02:22:10;;;;;;;3.13;2.20;;;19.20;55.00;;;;;;5012595;28;20053;-31
2023/05/30 02:24:37;;;;;;;4.88;2.25;;;19.30;73.30;;;;;;5012985;28;20080;-32
2023/05/30 02:27:04;;;;;;;3.40;2.05;;;19.40;56.80;;;;;;5012491;28;20141;-32
2023/05/30 02:29:31;;;;;;;3.80;2.28;;;19.50;73.90;;;;;;5012862;28;20046;-32
2023/05/30 02:31:58;;;;;;;3.22;2.20;;;;;;;;;;5012509;28;20057;-31
2023/05/30 02:34:25;;;;;;;4.85;2.50;;;19.00;73.10;;;;;;5012501;28;20060;-32
2023/05/30 02:36:53;;;;;;;3.20;2.25;;;19.30;73.30;;;;;;5012245;28;20144;-32
2023/05/30 02:39:19;;;;;;;4.05;2.22;;;18.10;67.20;;;;;;5012620;28;20129;-32
2023/05/30 02:41:46;;;;;;;2.75;2.10;;;;;;;;;;5012387;28;20129;-31
2023/05/30 02:44:13;;;;;;;4.78;2.15;;;19.50;73.10;;;;;;5012505;28;20132;-32
2023/05/30 02:46:40;;;;;;;4.00;2.10;;;19.20;72.80;;;;;;5012308;28;20057;-33
2023/05/30 02:49:06;;;;;;;3.63;2.30;;;19.20;60.80;;;;;;5012576;28;20071;-32
2023/05/30 02:51:33;;;;;;;3.53;2.08;;;18.20;73.20;;;;;;5012323;28;20057;-32
2023/05/30 02:54:01;;;;;;;4.53;2.50;;;18.70;72.90;;;;;;5012178;28;20128;-33
2023/05/30 02:56:28;;;;;;;3.50;2.00;;;18.90;73.20;;;;;;5012012;28;20582;-32
2023/05/30 02:58:56;;;;;;;4.05;2.15;;;;;;;;;;5012481;28;20054;-32
2023/05/30 03:01:23;;;;;;;4.15;2.20;;;18.70;73.00;;;;;;5011773;28;20041;-32
2023/05/30 03:03:50;;;;;;;5.05;2.17;;;19.30;73.00;;;;;;5012143;28;20137;-33
2023/05/30 03:06:18;;;;;;;4.10;2.30;;;19.30;60.30;;;;;;5011759;28;20477;-32
2023/05/30 03:08:45;;;;;;;3.92;2.10;;;;;;;;;;5012291;28;20050;-31
2023/05/30 03:11:13;;;;;;;4.75;2.30;;;18.00;72.40;;;;;;4994247;28;20418;-33
2023/05/30 03:13:41;;;;;;;3.70;2.20;;;18.70;68.60;;;;;;5011846;28;20141;-33
2023/05/30 03:16:08;;;;;;;5.03;2.13;;;19.20;62.10;;;;;;5011957;28;20052;-32
2023/05/30 03:18:36;;;;;;;4.15;2.00;;;;;;;;;;5012058;28;20132;-32
2023/05/30 03:21:02;;;;;;;4.78;2.28;;;18.40;73.00;;;;;;5011772;28;20069;-33
2023/05/30 03:23:30;;;;;;;4.05;2.17;;;;;;;;;;5011541;28;20113;-32
2023/05/30 03:25:56;;;;;;;3.10;1.92;;;18.80;73.60;;;;;;5011600;28;20480;-32
2023/05/30 03:28:24;;;;;;;5.18;2.35;;;19.20;73.80;;;;;;5012083;28;20045;-32
2023/05/30 03:30:55;;;;;;;4.68;2.30;;;18.80;72.80;;;;;;5012075;28;20073;-32
2023/05/30 03:33:23;;;;;;;4.15;2.05;;;19.30;73.80;;;;;;5011922;28;20053;-33
2023/05/30 03:35:50;;;;;;;4.40;2.05;;;;;;;;;;5011207;28;20259;-31
2023/05/30 03:38:17;;;;;;;3.97;2.15;;;19.30;73.00;;;;;;5011884;28;20057;-32
2023/05/30 03:40:43;;;;;;;4.40;2.17;;;20.00;73.90;;;;;;5011644;28;20129;-32
2023/05/30 03:43:11;;;;;;;3.67;2.03;;;;;;;;;;5011829;28;20128;-32
2023/05/30 03:45:39;;;;;;;4.15;2.40;;;18.40;67.30;;;;;;5011785;28;20380;-32
2023/05/30 03:48:06;;;;;;;3.00;1.98;;;19.10;73.90;;;;;;5011887;28;20137;-32
2023/05/30 03:50:33;;;;;;;3.75;2.10;;;18.70;72.80;;;;;;5011277;28;20125;-32
2023/05/30 03:52:59;;;;;;;3.65;2.00;;;19.10;73.90;;;;;;5011732;28;20054;-33
2023/05/30 03:55:26;;;;;;;3.97;2.10;;;18.80;72.90;;;;;;5011696;28;20137;-33
2023/05/30 03:57:53;;;;;;;4.03;2.00;;;19.00;69.50;;;;;;5011883;28;20445;-33
2023/05/30 04:00:20;;;;;;;3.35;2.00;;;;;;;;;;5011696;28;20129;-32
2023/05/30 04:02:48;;;;;;;5.03;2.40;;;19.60;69.50;;;;;;5011071;28;20046;-32
2023/05/30 04:05:15;;;;;;;3.15;2.10;;;19.30;67.50;;;;;;5011672;28;20057;-32
2023/05/30 04:07:42;;;;;;;3.40;2.00;;;18.60;73.20;;;;;;5011641;28;20064;-33
2023/05/30 04:10:09;;;;;;;3.17;1.92;;;19.40;56.50;;;;;;5011733;28;20050;-33
2023/05/30 04:12:37;;;;;;;3.80;2.33;;;20.00;73.50;;;;;;5012496;28;20499;-32
2023/05/30 04:15:04;;;;;;;4.45;2.10;;;18.50;73.50;;;;;;5015272;28;20129;-32
2023/05/30 04:17:31;;;;;;;3.10;2.00;;;;;;;;;;5014937;28;20046;-31
2023/05/30 04:19:59;;;;;;;3.75;1.90;;;19.10;71.40;;;;;;5015075;28;20046;-32
2023/05/30 04:22:26;;;;;;;4.70;2.13;;;18.60;72.80;;;;;;5015110;28;20076;-32
2023/05/30 04:24:53;;;;;;;3.78;2.78;;;19.00;73.50;;;;;;5015158;28;20132;-33
2023/05/30 04:27:20;;;;;;;3.40;2.10;;;;;;;;;;5015184;28;20124;-32
2023/05/30 04:29:47;;;;;;;4.47;2.50;;;;;;;;;;5014405;28;20054;-32
2023/05/30 04:32:13;;;;;;;3.00;1.90;;;18.30;57.30;;;;;;5014316;28;20085;-32
2023/05/30 04:34:41;;;;;;;4.70;1.88;;;19.50;73.70;;;;;;5013999;28;20466;-32
2023/05/30 04:37:10;;;;;;;4.32;2.22;;;19.00;55.10;;;;;;5011239;28;20112;-32
2023/05/30 04:39:37;;;;;;;3.45;1.90;;;19.00;73.20;;;;;;5014384;28;20046;-33
2023/05/30 04:42:04;;;;;;;2.83;1.98;;;;;;;;;;5014622;28;20121;-31
2023/05/30 04:44:37;;;;;;;5.47;2.05;;;19.10;73.20;;;;;;5011859;28;20045;-32
2023/05/30 04:47:05;;;;;;;5.13;2.00;;;19.10;66.40;;;;;;5014062;28;20052;-32
2023/05/30 04:49:32;;;;;;;3.08;1.95;;;;;;;;;;5011755;28;20059;-32
2023/05/30 04:52:00;;;;;;;5.18;2.20;;;19.10;74.00;;;;;;5014106;28;20411;-33
2023/05/30 04:54:29;;;;;;;3.38;2.08;;;18.90;55.00;;;;;;5014190;28;20057;-32
2023/05/30 04:56:55;;;;;;;4.88;2.22;;;19.30;73.70;;;;;;5013877;28;20042;-32
2023/05/30 04:59:23;;;;;;;3.00;1.90;;;;;;;;;;5014230;28;20050;-32
2023/05/30 05:01:49;;;;;;;4.40;1.98;;;18.50;73.20;;;;;;5013561;28;20042;-32
2023/05/30 05:04:16;;;;;;;3.63;2.10;;;19.30;73.30;;;;;;5013220;28;20048;-32
2023/05/30 05:06:43;;;;;;;3.53;2.03;;;18.10;61.50;;;;;;5013919;28;20133;-32
2023/05/30 05:09:10;;;;;;;4.07;1.88;;;19.30;73.60;;;;;;5013905;28;20574;-31
2023/05/30 05:11:38;;;;;;;3.45;2.20;;;19.30;67.50;;;;;;5014204;28;20057;-30
2023/05/30 05:14:05;;;;;;;2.50;1.90;;;19.10;73.60;;;;;;5014397;28;20101;-30
2023/05/30 05:16:32;;;;;;;3.63;2.20;;;;;;;;;;5013887;28;20129;-31
2023/05/30 05:18:59;;;;;;;3.75;2.00;;;;;;;;;;5014376;28;20137;-31
2023/05/30 05:21:26;;;;;;;3.45;1.92;;;19.00;73.20;;;;;;5008436;28;20107;-30
2023/05/30 05:23:53;;;;;;;3.85;1.95;;;19.80;73.60;;;;;;5001818;28;20129;-30
2023/05/30 05:26:20;;;;;;;3.28;1.95;;;17.70;67.50;;;;;;5014197;28;20133;-30
2023/05/30 05:28:48;;;;;;;3.50;2.00;;;18.90;68.60;;;;;;5013856;28;20495;-30
2023/05/30 05:31:14;;;;;;;3.13;1.90;;;19.70;74.40;;;;;;5013363;28;20145;-30
2023/05/30 05:33:42;;;;;;;2.70;1.85;;;18.90;73.90;;;;;;5013612;28;20058;-31
2023/05/30 05:36:08;;;;;;;3.97;2.05;;;18.50;73.20;;;;;;5013418;28;20046;-31
2023/05/30 05:38:36;;;;;;;4.20;1.80;;;;;;;;;;5007744;28;20077;-32
2023/05/30 05:41:02;;;;;;;5.40;2.03;;;18.20;72.70;;;;;;5003299;28;20129;-31
2023/05/30 05:43:29;;;;;;;4.53;2.20;;;19.20;74.10;;;;;;5002937;28;20121;-31
2023/05/30 05:45:57;;;;;;;3.78;1.88;;;19.00;55.10;;;;;;5006085;28;20048;-31
2023/05/30 05:48:25;;;;;;;3.35;1.95;;;;;;;;;;5003532;28;20049;-31
2023/05/30 05:50:52;;;;;;;3.25;1.95;;;;;;;;;;5002619;28;20116;-30
2023/05/30 05:53:19;;;;;;;3.20;1.83;;;19.10;72.90;;;;;;5004079;28;20128;-31
2023/05/30 05:55:45;;;;;;;4.93;2.00;;;19.30;65.70;;;;;;5002871;28;20133;-30
2023/05/30 05:58:12;;;;;;;4.57;2.05;;;;;;;;;;5003446;28;20053;-30
2023/05/30 06:00:39;;;;;;;3.40;1.90;;;;;;;;;;5006230;28;20057;-30
2023/05/30 06:03:07;;;;;;;4.90;2.20;;;19.30;54.70;;;;;;5006039;28;20564;-30
2023/05/30 06:05:34;;;;;;;3.20;1.80;;;;;;;;;;5004127;28;20054;-31
2023/05/30 06:08:01;;;;;;;5.15;2.03;;;19.90;73.20;;;;;;5013261;28;20052;-30
2023/05/30 06:10:28;;;;;;;3.22;1.80;;;19.10;72.30;;;;;;5013740;28;20402;-30
2023/05/30 06:12:55;;;;;;;2.42;1.65;;;19.70;60.00;;;;;;5012286;28;20410;-30
2023/05/30 06:15:22;;;;;;;3.88;1.70;;;20.30;73.10;;;;;;5002767;28;20056;-30
2023/05/30 06:17:49;;;;;;;4.22;1.65;;;;;;;;;;5004540;28;20045;-31
2023/05/30 06:20:17;;;;;;;3.63;1.90;;;19.70;72.70;;;;;;5007155;28;20137;-30
2023/05/30 06:22:44;;;;;;;2.70;1.73;;;20.60;65.50;;;;;;5001582;28;20133;-30
2023/05/30 06:25:10;;;;;;;5.22;2.30;;;18.70;71.50;;;;;;4998780;28;20061;-30
2023/05/30 06:27:37;;;;;;;2.78;1.73;;;;;;;;;;5007330;28;20522;-30
2023/05/30 06:30:05;;;;;;;5.18;1.80;;;19.00;72.00;;;;;;5013209;28;20128;-30
2023/05/30 06:32:32;;;;;;;4.30;1.75;;;20.40;73.00;;;;;;5012726;28;20046;-30
2023/05/30 06:34:59;;;;;;;2.22;1.50;;;19.50;71.70;;;;;;5012621;28;20124;-30
2023/05/30 06:37:27;;;;;;;4.18;1.77;;;20.70;61.90;;;;;;5011573;28;20056;-30
2023/05/30 06:39:54;;;;;;;2.40;1.60;;;;;;;;;;5012644;28;20078;-30
2023/05/30 06:42:21;;;;;;;3.65;1.70;;;20.30;72.00;;;;;;5012318;28;20052;-30
2023/05/30 06:44:48;;;;;;;2.72;1.70;;;20.90;72.60;;;;;;4998578;28;20482;-30
2023/05/30 06:47:15;;;;;;;2.42;1.58;;;20.40;71.90;;;;;;4993069;28;20133;-30
2023/05/30 06:49:42;;;;;;;4.35;1.90;;;;;;;;;;4992981;28;20415;-31
2023/05/30 06:52:08;;;;;;;3.28;1.50;;;20.20;71.60;;;;;;4992696;28;20484;-30
2023/05/30 06:54:37;;;;;;;2.70;1.80;;;19.80;65.70;;;;;;4992684;28;20096;-30
2023/05/30 06:57:04;;;;;;;2.88;1.70;;;20.20;72.00;;;;;;5005648;28;20042;-30
2023/05/30 06:59:33;;;;;;;2.97;1.52;;;20.20;71.50;;;;;;5011570;28;20068;-30
2023/05/30 07:02:00;;;;;;;3.10;1.70;;;;;;;;;;5010128;28;20077;-31
2023/05/30 07:04:27;;;;;;;1.98;1.33;;;;;;;;;;5011306;28;20060;-31
2023/05/30 07:06:54;;;;;;;5.38;1.90;;;20.10;71.40;;;;;;5012205;28;20053;-30
2023/05/30 07:09:21;;;;;;;5.13;1.63;;;20.30;65.90;;;;;;5012327;28;20082;-30
2023/05/30 07:11:49;;;;;;;3.17;1.83;;;20.70;72.10;;;;;;5012389;28;20046;-30
2023/05/30 07:14:16;;;;;;;2.35;1.58;;;20.10;71.40;;;;;;5011916;28;20104;-30
2023/05/30 07:16:43;;;;;;;3.05;1.70;;;;;;;;;;5012240;28;20093;-30
2023/05/30 07:19:10;;;;;;;3.55;1.48;;;21.10;71.80;;;;;;5012207;28;20130;-30
2023/05/30 07:21:36;;;;;;;3.13;1.67;;;20.60;65.90;;;;;;5011965;28;20116;-30
2023/05/30 07:24:03;;;;;;;3.55;1.70;;;20.00;71.70;;;;;;5011414;28;20081;-33
2023/05/30 07:26:30;;;;;;;2.92;1.60;;;20.30;72.40;;;;;;5008756;28;20052;-33
2023/05/30 07:28:58;;;;;;;2.42;1.50;;;20.10;53.70;;;;;;5012162;28;20418;-31
2023/05/30 07:31:25;;;;;;;2.40;1.60;;;;;;;;;;5012021;28;20049;-31
2023/05/30 07:33:52;;;;;;;2.55;1.52;;;;;;;;;;5011556;28;20561;-33
2023/05/30 07:36:19;;;;;;;3.88;1.60;;;;;;;;;;5011295;28;20743;-32
2023/05/30 07:38:46;;;;;;;3.08;1.60;;;19.70;71.60;;;;;;5012494;28;20467;-33
2023/05/30 07:41:13;;;;;;;3.58;1.70;;;20.20;71.60;;;;;;5004075;28;20137;-33
2023/05/30 07:43:40;;;;;;;3.17;1.65;;;20.30;63.90;;;;;;5004355;28;20418;-33
2023/05/30 07:46:08;;;;;;;2.45;1.40;;;21.00;72.50;;;;;;5001546;28;20133;-33
2023/05/30 07:48:34;;;;;;;4.25;1.52;;;19.90;72.40;;;;;;5004728;28;20089;-32
2023/05/30 07:51:02;;;;;;;2.80;1.50;;;;;;;;;;5009960;28;20578;-31
2023/05/30 07:53:29;;;;;;;2.88;1.60;;;19.60;56.70;;;;;;5015603;28;20050;-32
2023/05/30 07:55:55;;;;;;;2.30;1.30;;;19.70;72.30;;;;;;5015727;28;20053;-32
2023/05/30 07:58:23;;;;;;;1.90;1.33;;;19.70;66.50;;;;;;5015385;28;20145;-33
2023/05/30 08:00:50;;;;;;;2.70;1.50;;;20.80;64.80;;;;;;5010379;28;20050;-32
2023/05/30 08:03:18;;;;;;;2.40;1.50;;;20.00;71.90;;;;;;5015112;28;20077;-33
2023/05/30 08:05:46;;;;;;;2.30;1.42;;;;;;;;;;5014466;28;20058;-33
2023/05/30 08:08:13;;;;;;;2.90;1.30;;;20.10;71.80;;;;;;5013583;28;20057;-33
2023/05/30 08:10:40;;;;;;;2.13;1.42;;;19.40;58.60;;;;;;5013309;28;20720;-33
2023/05/30 08:13:07;;;;;;;3.72;1.65;;;;;;;;;;5014236;28;20052;-33
2023/05/30 08:15:33;;;;;;;2.45;1.50;;;19.70;71.70;;;;;;5011866;28;20081;-33
2023/05/30 08:18:02;;;;;;;2.47;1.40;;;;;;;;;;5014740;28;20507;-31
2023/05/30 08:20:30;;;;;;;2.15;1.25;;;19.80;54.20;;;;;;4997855;28;20085;-32
2023/05/30 08:22:58;;;;;;;1.85;1.48;;;20.70;58.10;;;;;;5014298;28;20042;-32
2023/05/30 08:25:30;;;;;;;2.97;1.60;;;;;;;;;;5013256;28;20050;-33
2023/05/30 08:27:59;;;;;;;4.57;1.40;;;20.00;60.50;;;;;;5014462;28;20056;-32
2023/05/30 08:30:26;;;;;;;3.20;1.30;;;;;;;;;;5014404;28;20115;-33
2023/05/30 08:32:53;;;;;;;2.78;1.40;;;18.70;71.20;;;;;;5013614;28;20052;-32
2023/05/30 08:35:19;;;;;;;3.08;1.40;;;20.00;67.00;;;;;;5014011;28;20049;-32
2023/05/30 08:37:48;;;;;;;2.38;1.33;;;19.30;71.70;;;;;;5013926;28;20046;-33
2023/05/30 08:40:14;;;;;;;2.28;1.30;;;19.30;59.00;;;;;;5006326;28;20133;-33
2023/05/30 08:42:41;;;;;;;3.63;1.60;;;;;;;;;;5003621;28;20575;-32
2023/05/30 08:45:09;;;;;;;2.33;1.30;;;19.70;72.70;;;;;;5011546;28;20567;-32
2023/05/30 08:47:36;;;;;;;2.10;1.40;;;19.20;72.40;;;;;;5015108;28;20136;-33
2023/05/30 08:50:04;;;;;;;1.95;1.38;;;20.00;72.80;;;;;;5014712;28;20136;-33
2023/05/30 08:52:32;;;;;;;2.88;1.30;;;20.50;72.30;;;;;;5014719;28;20046;-33
2023/05/30 08:55:05;;;;;;;1.98;1.30;;;19.60;58.40;;;;;;5008477;28;20049;-33
2023/05/30 08:57:34;;;;;;;1.90;1.30;;;19.70;54.40;;;;;;5014874;28;20050;-33
2023/05/30 09:00:03;;;;;;;1.92;1.25;;;20.40;72.30;;;;;;5013538;28;20117;-33
2023/05/30 09:02:29;;;;;;;2.60;1.30;;;19.80;72.10;;;;;;5014258;28;20038;-33
2023/05/30 09:04:59;;;;;;;2.08;1.38;;;20.70;64.10;;;;;;5013986;28;20581;-33
2023/05/30 09:07:26;;;;;;;4.40;1.30;;;;;;;;;;5014439;28;20409;-31
2023/05/30 09:09:53;;;;;;;2.20;1.50;;;;;;;;;;5013982;28;20054;-32
2023/05/30 09:12:22;;;;;;;1.95;1.10;;;19.70;54.40;;;;;;5013698;28;20068;-31
2023/05/30 09:14:48;;;;;;;2.25;1.20;;;20.20;66.00;;;;;;5013857;28;20129;-32
2023/05/30 09:17:15;;;;;;;1.67;1.20;;;19.70;72.30;;;;;;5007242;28;20125;-33
2023/05/30 09:19:42;;;;;;;1.70;1.20;;;19.50;72.40;;;;;;5013665;28;20056;-32
2023/05/30 09:22:08;;;;;;;2.90;1.38;;;19.40;61.70;;;;;;5012739;28;20042;-32
2023/05/30 09:25:00;;;;;;;2.13;1.25;;;19.70;54.40;;;;;;5013644;28;20161;-32
2023/05/30 09:27:29;;;;;;;2.15;1.10;;;19.60;54.40;;;;;;5000663;28;20507;-32
2023/05/30 09:29:56;;;;;;;1.40;1.20;;;19.80;72.20;;;;;;5013334;28;20518;-32
2023/05/30 09:32:28;;;;;;;3.78;1.23;;;19.70;54.50;;;;;;5013249;28;20042;-31
2023/05/30 09:34:56;;;;;;;1.23;1.10;;;;;;;;;;5012908;28;20388;-32
2023/05/30 09:37:24;;;;;;;1.75;1.00;;;;;;;;;;5010428;28;20054;-32
2023/05/30 09:40:07;;;;;;;1.95;1.17;;;20.70;70.80;;;;;;5012827;28;20050;-32
2023/05/30 09:42:45;;;;;;;1.20;1.00;;;18.90;72.60;;;;;;5012083;28;20136;-32
2023/05/30 09:45:13;;;;;;;1.92;1.17;;;19.90;72.60;;;;;;5012320;28;20050;-32
2023/05/30 09:47:40;;;;;;;1.60;1.00;;;19.70;72.20;;;;;;5010352;28;20053;-32
2023/05/30 09:50:08;;;;;;;2.35;0.95;;;19.60;54.40;;;;;;5012463;28;20082;-32
2023/05/30 09:52:35;;;;;;;1.65;1.20;;;;;;;;;;5012620;28;20049;-30
2023/05/30 09:55:05;;;;;;;1.20;1.00;;;20.10;72.40;;;;;;5013224;28;20046;-30
2023/05/30 09:57:35;;;;;;;2.22;1.15;;;19.40;72.00;;;;;;5012151;28;20104;-30
2023/05/30 10:00:11;;;;;;;1.70;1.10;;;19.50;57.40;;;;;;5010716;28;20073;-30
2023/05/30 10:02:39;;;;;;;3.88;1.20;;;19.70;58.60;;;;;;5012413;28;20049;-30
2023/05/30 10:05:06;;;;;;;1.90;0.93;;;;;;;;;;5012781;28;20064;-31
2023/05/30 10:07:33;;;;;;;1.30;1.02;;;19.60;73.00;;;;;;5012540;28;20060;-30
2023/05/30 10:10:00;;;;;;;2.22;0.95;;;19.90;58.80;;;;;;5012761;28;20054;-30
2023/05/30 10:12:27;;;;;;;1.45;1.00;;;19.80;72.60;;;;;;5011048;28;20081;-30
2023/05/30 10:14:53;;;;;;;1.38;1.05;;;19.80;68.40;;;;;;5013002;28;20145;-30
2023/05/30 10:17:23;;;;;;;1.13;1.00;;;20.40;54.90;;;;;;5012098;28;20049;-31
2023/05/30 10:19:52;;;;;;;1.23;0.90;;;20.70;72.90;;;;;;5013019;28;20056;-30
2023/05/30 10:22:19;;;;;;;2.28;1.00;;;19.20;72.00;;;;;;5012348;28;20049;-30
2023/05/30 10:24:47;;;;;;;1.40;1.00;;;;;;;;;;5012232;28;20046;-30
2023/05/30 10:27:16;;;;;;;1.30;1.10;;;18.80;72.30;;;;;;5012972;28;20133;-30
2023/05/30 10:29:47;;;;;;;3.53;1.00;;;19.50;54.60;;;;;;5012541;28;20133;-31
2023/05/30 10:32:15;;;;;;;1.67;1.10;;;19.60;61.60;;;;;;5012663;28;20046;-30
2023/05/30 10:34:54;;;;;;;3.17;1.10;;;19.60;73.20;;;;;;5012346;28;20111;-30
2023/05/30 10:37:21;;;;;;;1.80;1.10;;;19.80;72.70;;;;;;5012167;28;20138;-30
2023/05/30 10:39:53;;;;;;;1.33;0.93;;;19.50;54.50;;;;;;5012595;28;20527;-30
2023/05/30 10:42:22;;;;;;;1.60;0.98;;;19.70;72.30;;;;;;5012234;28;20050;-30
2023/05/30 10:44:54;;;;;;;1.30;1.00;;;19.10;63.00;;;;;;5012387;28;20514;-31
2023/05/30 10:47:27;;;;;;;2.75;1.00;;;19.50;54.50;;;;;;5011766;28;20128;-31
2023/05/30 10:49:55;;;;;;;1.15;0.90;;;19.60;72.30;;;;;;5012305;28;20053;-30
2023/05/30 10:52:31;;;;;;;1.85;1.10;;;19.60;67.70;;;;;;5005289;28;20495;-30
2023/05/30 10:54:58;;;;;;;1.58;0.93;;;;;;;;;;4998450;28;20108;-30
2023/05/30 10:57:27;;;;;;;2.33;1.25;;;19.40;72.30;;;;;;5012062;28;20475;-30
2023/05/30 10:59:57;;;;;;;1.33;0.90;;;18.70;64.20;;;;;;5011107;28;20046;-30
2023/05/30 11:02:35;;;;;;;2.20;1.00;;;19.40;54.50;;;;;;5011264;28;20053;-31
2023/05/30 11:05:07;;;;;;;2.28;0.80;;;19.50;54.60;;;;;;5012289;28;20136;-31
2023/05/30 11:07:35;;;;;;;3.67;1.00;;;19.60;58.10;;;;;;5012301;28;20050;-31
2023/05/30 11:10:03;;;;;;;1.20;0.80;;;19.20;60.40;;;;;;5011997;28;20050;-30
2023/05/30 11:12:30;;;;;;;1.25;0.80;;;;;;;;;;5011034;28;20399;-31
2023/05/30 11:14:58;;;;;;;1.65;0.98;;;19.70;72.90;;;;;;5011112;28;20073;-30
2023/05/30 11:17:29;;;;;;;1.35;0.93;;;20.40;72.80;;;;;;5009985;28;20056;-30
2023/05/30 11:20:06;;;;;;;1.70;0.90;;;19.40;54.60;;;;;;5011271;28;20042;-32
2023/05/30 11:22:33;;;;;;;1.63;0.90;;;20.40;73.20;;;;;;5010759;28;20042;-30
2023/05/30 11:25:18;;;;;;;1.27;0.90;;;19.10;65.80;;;;;;5005604;28;20052;-30
2023/05/30 11:28:15;;;;;;;2.17;1.00;;;19.40;66.20;;;;;;5007800;28;20089;-30
2023/05/30 11:30:45;;;;;;;1.83;1.20;;;19.40;54.70;;;;;;5008535;28;20221;-32
2023/05/30 11:33:13;;;;;;;1.13;0.98;;;;;;;;;;5010043;28;20133;-31
2023/05/30 11:35:42;;;;;;;3.22;1.15;;;19.30;72.40;;;;;;5005306;28;20426;-30
2023/05/30 11:38:10;;;;;;;4.07;1.27;;;20.30;72.90;;;;;;5010656;28;20057;-30
2023/05/30 11:40:42;;;;;;;2.83;1.00;;;19.40;54.80;;;;;;5011827;28;20460;-31
2023/05/30 11:43:09;;;;;;;5.10;1.23;;;;;;;;;;5011836;28;20053;-30
2023/05/30 11:45:36;;;;;;;3.25;1.10;;;19.40;73.00;;;;;;5011526;28;20049;-29
2023/05/30 11:48:06;;;;;;;2.30;1.45;;;19.50;54.90;;;;;;5011296;28;20116;-30
2023/05/30 11:50:37;;;;;;;6.15;1.30;;;18.80;54.40;;;;;;5011050;28;20052;-30
2023/05/30 11:53:12;;;;;;;2.85;1.20;;;19.70;73.60;;;;;;5011819;28;20050;-30
2023/05/30 11:55:38;;;;;;;2.50;1.10;;;18.90;73.00;;;;;;5011606;28;20679;-30
2023/05/30 11:58:05;;;;;;;1.80;1.00;;;19.60;61.90;;;;;;5011605;28;20053;-31
2023/05/30 12:00:32;;;;;;;2.63;1.27;;;19.60;73.10;;;;;;5011595;28;20414;-30
2023/05/30 12:03:00;;;;;;;1.67;0.90;;;19.60;71.40;;;;;;5011494;28;20133;-31
2023/05/30 12:05:26;;;;;;;4.68;2.05;;;19.10;73.10;;;;;;5011634;28;20046;-30
2023/05/30 12:07:54;;;;;;;2.78;1.20;;;;;;;;;;5011621;28;20132;-33
2023/05/30 12:10:29;;;;;;;3.42;1.00;;;19.50;54.60;;;;;;5009591;28;20148;-30
2023/05/30 12:12:56;;;;;;;1.52;1.10;;;;;;;;;;5010987;28;20042;-31
2023/05/30 12:15:23;;;;;;;1.98;1.17;;;;;;;;;;5010249;28;20132;-31
2023/05/30 12:17:51;;;;;;;3.08;1.30;;;19.60;61.50;;;;;;5010453;28;20136;-30
2023/05/30 12:20:18;;;;;;;2.85;1.30;;;;;;;;;;5011439;28;20068;-31
2023/05/30 12:22:45;;;;;;;3.50;1.17;;;19.50;72.70;;;;;;5010988;28;20129;-30
2023/05/30 12:25:12;;;;;;;4.55;1.30;;;19.10;72.90;;;;;;5011203;28;20058;-30
2023/05/30 12:27:43;;;;;;;2.95;1.00;;;19.30;72.50;;;;;;5011487;28;20128;-30
2023/05/30 12:30:14;;;;;;;2.88;1.20;;;19.70;55.20;;;;;;5011549;28;20046;-31
2023/05/30 12:32:40;;;;;;;2.35;1.20;;;19.60;63.60;;;;;;5011147;28;20049;-31
2023/05/30 12:35:08;;;;;;;3.08;1.30;;;20.10;72.90;;;;;;5012939;28;20509;-30
2023/05/30 12:37:35;;;;;;;3.10;1.40;;;19.60;62.30;;;;;;5014609;28;20136;-30
2023/05/30 12:40:02;;;;;;;3.60;1.40;;;19.30;56.50;;;;;;5014359;28;20045;-31
2023/05/30 12:42:30;;;;;;;5.30;1.45;;;19.60;65.20;;;;;;5014356;28;20062;-30
2023/05/30 12:44:58;;;;;;;3.05;1.20;;;19.90;55.20;;;;;;5014935;28;20414;-33
2023/05/30 12:47:26;;;;;;;5.85;1.40;;;20.40;72.90;;;;;;5013977;28;20145;-31
2023/05/30 12:49:53;;;;;;;3.88;1.25;;;;;;;;;;5014920;28;20087;-32
2023/05/30 12:52:20;;;;;;;4.95;1.33;;;19.90;55.00;;;;;;5010425;28;20134;-30
2023/05/30 12:54:47;;;;;;;3.22;1.27;;;19.90;68.90;;;;;;5013955;28;20065;-30
2023/05/30 12:57:14;;;;;;;3.03;1.38;;;19.60;66.40;;;;;;5012428;28;20042;-31
2023/05/30 12:59:41;;;;;;;5.13;1.13;;;21.00;58.30;;;;;;5013869;28;20049;-31
2023/05/30 13:02:10;;;;;;;3.00;1.30;;;19.80;73.10;;;;;;5013043;28;20057;-30
2023/05/30 13:04:37;;;;;;;2.03;1.30;;;19.40;61.10;;;;;;5013706;28;20049;-31
2023/05/30 13:07:04;;;;;;;4.57;1.02;;;20.20;72.90;;;;;;5008288;28;20122;-30
2023/05/30 13:09:31;;;;;;;3.40;1.08;;;19.70;72.70;;;;;;5008608;28;20057;-30
2023/05/30 13:11:58;;;;;;;5.38;1.30;;;;;;;;;;5008336;28;20457;-30